sensor_id;sensor_type;location;lat;lon;timestamp;P1;durP1;ratioP1;P2;durP2;ratioP2
15799;SDS011;8002;51.196;7.010;2023-11-21T00:00:12;11.77;;;10.07;;
15799;SDS011;8002;51.196;7.010;2023-11-21T00:02:39;12.13;;;9.10;;
15799;SDS011;8002;51.196;7.010;2023-11-21T00:05:06;10.53;;;9.30;;
15799;SDS011;8002;51.196;7.010;2023-11-21T00:07:33;12.63;;;10.17;;
15799;SDS011;8002;51.196;7.010;2023-11-21T00:10:00;12.73;;;9.87;;
15799;SDS011;8002;51.196;7.010;2023-11-21T00:12:26;15.43;;;10.70;;
15799;SDS011;8002;51.196;7.010;2023-11-21T00:14:55;12.30;;;10.13;;
15799;SDS011;8002;51.196;7.010;2023-11-21T00:17:22;14.53;;;11.07;;
15799;SDS011;8002;51.196;7.010;2023-11-21T00:19:48;14.87;;;10.43;;
15799;SDS011;8002;51.196;7.010;2023-11-21T00:22:15;13.23;;;10.40;;
15799;SDS011;8002;51.196;7.010;2023-11-21T00:24:41;13.33;;;9.90;;
15799;SDS011;8002;51.196;7.010;2023-11-21T00:27:07;13.67;;;10.57;;
15799;SDS011;8002;51.196;7.010;2023-11-21T00:29:33;12.30;;;9.73;;
15799;SDS011;8002;51.196;7.010;2023-11-21T00:32:00;12.93;;;10.87;;
15799;SDS011;8002;51.196;7.010;2023-11-21T00:34:27;11.37;;;9.80;;
15799;SDS011;8002;51.196;7.010;2023-11-21T00:36:53;13.53;;;10.40;;
15799;SDS011;8002;51.196;7.010;2023-11-21T00:39:19;13.43;;;9.57;;
15799;SDS011;8002;51.196;7.010;2023-11-21T00:41:46;15.03;;;9.90;;
15799;SDS011;8002;51.196;7.010;2023-11-21T00:44:13;12.90;;;9.87;;
15799;SDS011;8002;51.196;7.010;2023-11-21T00:46:39;16.37;;;10.53;;
15799;SDS011;8002;51.196;7.010;2023-11-21T00:49:08;12.97;;;10.60;;
15799;SDS011;8002;51.196;7.010;2023-11-21T00:51:34;12.50;;;10.80;;
15799;SDS011;8002;51.196;7.010;2023-11-21T00:54:03;14.00;;;11.03;;
15799;SDS011;8002;51.196;7.010;2023-11-21T00:56:29;14.57;;;11.37;;
15799;SDS011;8002;51.196;7.010;2023-11-21T00:58:56;12.70;;;10.80;;
15799;SDS011;8002;51.196;7.010;2023-11-21T01:01:23;19.33;;;11.73;;
15799;SDS011;8002;51.196;7.010;2023-11-21T01:03:49;14.47;;;11.87;;
15799;SDS011;8002;51.196;7.010;2023-11-21T01:06:17;14.43;;;11.73;;
15799;SDS011;8002;51.196;7.010;2023-11-21T01:08:44;19.03;;;12.03;;
15799;SDS011;8002;51.196;7.010;2023-11-21T01:11:11;18.00;;;13.03;;
15799;SDS011;8002;51.196;7.010;2023-11-21T01:13:38;12.63;;;11.23;;
15799;SDS011;8002;51.196;7.010;2023-11-21T01:16:04;18.23;;;13.53;;
15799;SDS011;8002;51.196;7.010;2023-11-21T01:18:31;16.47;;;12.77;;
15799;SDS011;8002;51.196;7.010;2023-11-21T01:20:57;13.63;;;11.70;;
15799;SDS011;8002;51.196;7.010;2023-11-21T01:23:26;18.10;;;12.97;;
15799;SDS011;8002;51.196;7.010;2023-11-21T01:25:52;19.27;;;13.13;;
15799;SDS011;8002;51.196;7.010;2023-11-21T01:28:19;16.33;;;12.60;;
15799;SDS011;8002;51.196;7.010;2023-11-21T01:30:45;15.60;;;12.83;;
15799;SDS011;8002;51.196;7.010;2023-11-21T01:33:12;17.70;;;12.77;;
15799;SDS011;8002;51.196;7.010;2023-11-21T01:35:40;18.13;;;13.27;;
15799;SDS011;8002;51.196;7.010;2023-11-21T01:38:07;17.83;;;13.73;;
15799;SDS011;8002;51.196;7.010;2023-11-21T01:40:35;16.20;;;12.03;;
15799;SDS011;8002;51.196;7.010;2023-11-21T01:43:01;15.47;;;12.50;;
15799;SDS011;8002;51.196;7.010;2023-11-21T01:45:28;15.30;;;11.70;;
15799;SDS011;8002;51.196;7.010;2023-11-21T01:47:56;16.43;;;11.97;;
15799;SDS011;8002;51.196;7.010;2023-11-21T01:50:23;14.60;;;11.27;;
15799;SDS011;8002;51.196;7.010;2023-11-21T01:52:49;17.53;;;13.27;;
15799;SDS011;8002;51.196;7.010;2023-11-21T01:55:16;17.60;;;13.33;;
15799;SDS011;8002;51.196;7.010;2023-11-21T01:57:45;18.37;;;11.90;;
15799;SDS011;8002;51.196;7.010;2023-11-21T02:00:12;19.53;;;12.83;;
15799;SDS011;8002;51.196;7.010;2023-11-21T02:02:41;21.70;;;13.27;;
15799;SDS011;8002;51.196;7.010;2023-11-21T02:05:08;20.40;;;12.80;;
15799;SDS011;8002;51.196;7.010;2023-11-21T02:07:37;18.30;;;13.73;;
15799;SDS011;8002;51.196;7.010;2023-11-21T02:10:04;19.67;;;12.47;;
15799;SDS011;8002;51.196;7.010;2023-11-21T02:12:30;18.63;;;11.93;;
15799;SDS011;8002;51.196;7.010;2023-11-21T02:14:58;19.97;;;12.57;;
15799;SDS011;8002;51.196;7.010;2023-11-21T02:17:24;19.33;;;13.10;;
15799;SDS011;8002;51.196;7.010;2023-11-21T02:19:52;18.97;;;12.20;;
15799;SDS011;8002;51.196;7.010;2023-11-21T02:22:19;16.63;;;12.97;;
15799;SDS011;8002;51.196;7.010;2023-11-21T02:24:46;17.60;;;13.07;;
15799;SDS011;8002;51.196;7.010;2023-11-21T02:27:13;18.20;;;12.63;;
15799;SDS011;8002;51.196;7.010;2023-11-21T02:29:42;19.80;;;13.43;;
15799;SDS011;8002;51.196;7.010;2023-11-21T02:32:08;22.70;;;13.90;;
15799;SDS011;8002;51.196;7.010;2023-11-21T02:34:35;21.70;;;13.40;;
15799;SDS011;8002;51.196;7.010;2023-11-21T02:37:03;17.43;;;13.53;;
15799;SDS011;8002;51.196;7.010;2023-11-21T02:39:30;18.73;;;13.13;;
15799;SDS011;8002;51.196;7.010;2023-11-21T02:41:58;21.00;;;13.30;;
15799;SDS011;8002;51.196;7.010;2023-11-21T02:44:24;19.33;;;13.40;;
15799;SDS011;8002;51.196;7.010;2023-11-21T02:46:51;19.00;;;14.37;;
15799;SDS011;8002;51.196;7.010;2023-11-21T02:49:17;19.30;;;13.37;;
15799;SDS011;8002;51.196;7.010;2023-11-21T02:51:44;17.53;;;13.33;;
15799;SDS011;8002;51.196;7.010;2023-11-21T02:54:10;20.33;;;13.00;;
15799;SDS011;8002;51.196;7.010;2023-11-21T02:56:38;19.83;;;13.90;;
15799;SDS011;8002;51.196;7.010;2023-11-21T02:59:06;20.17;;;13.63;;
15799;SDS011;8002;51.196;7.010;2023-11-21T03:01:32;21.33;;;13.00;;
15799;SDS011;8002;51.196;7.010;2023-11-21T03:03:59;19.37;;;13.43;;
15799;SDS011;8002;51.196;7.010;2023-11-21T03:06:25;21.20;;;14.17;;
15799;SDS011;8002;51.196;7.010;2023-11-21T03:08:51;22.00;;;13.97;;
15799;SDS011;8002;51.196;7.010;2023-11-21T03:11:18;19.07;;;12.37;;
15799;SDS011;8002;51.196;7.010;2023-11-21T03:13:44;21.67;;;13.63;;
15799;SDS011;8002;51.196;7.010;2023-11-21T03:16:12;23.90;;;13.93;;
15799;SDS011;8002;51.196;7.010;2023-11-21T03:18:38;19.43;;;13.47;;
15799;SDS011;8002;51.196;7.010;2023-11-21T03:21:05;22.77;;;13.93;;
15799;SDS011;8002;51.196;7.010;2023-11-21T03:23:33;18.47;;;13.43;;
15799;SDS011;8002;51.196;7.010;2023-11-21T03:26:00;21.43;;;13.33;;
15799;SDS011;8002;51.196;7.010;2023-11-21T03:28:26;19.63;;;13.27;;
15799;SDS011;8002;51.196;7.010;2023-11-21T03:30:52;21.23;;;14.50;;
15799;SDS011;8002;51.196;7.010;2023-11-21T03:33:20;20.13;;;13.47;;
15799;SDS011;8002;51.196;7.010;2023-11-21T03:35:47;17.33;;;13.37;;
15799;SDS011;8002;51.196;7.010;2023-11-21T03:38:14;18.97;;;14.00;;
15799;SDS011;8002;51.196;7.010;2023-11-21T03:40:41;17.57;;;12.43;;
15799;SDS011;8002;51.196;7.010;2023-11-21T03:43:07;21.10;;;12.97;;
15799;SDS011;8002;51.196;7.010;2023-11-21T03:45:33;16.87;;;12.00;;
15799;SDS011;8002;51.196;7.010;2023-11-21T03:48:00;21.13;;;13.00;;
15799;SDS011;8002;51.196;7.010;2023-11-21T03:50:28;19.53;;;13.77;;
15799;SDS011;8002;51.196;7.010;2023-11-21T03:52:54;18.57;;;12.47;;
15799;SDS011;8002;51.196;7.010;2023-11-21T03:55:21;17.10;;;11.87;;
15799;SDS011;8002;51.196;7.010;2023-11-21T03:57:48;17.60;;;12.33;;
15799;SDS011;8002;51.196;7.010;2023-11-21T04:00:15;16.73;;;11.33;;
15799;SDS011;8002;51.196;7.010;2023-11-21T04:02:42;21.13;;;13.10;;
15799;SDS011;8002;51.196;7.010;2023-11-21T04:05:08;17.43;;;12.13;;
15799;SDS011;8002;51.196;7.010;2023-11-21T04:07:36;19.23;;;12.23;;
15799;SDS011;8002;51.196;7.010;2023-11-21T04:10:03;22.50;;;12.53;;
15799;SDS011;8002;51.196;7.010;2023-11-21T04:12:32;18.07;;;12.30;;
15799;SDS011;8002;51.196;7.010;2023-11-21T04:14:59;17.40;;;11.70;;
15799;SDS011;8002;51.196;7.010;2023-11-21T04:17:25;16.83;;;12.53;;
15799;SDS011;8002;51.196;7.010;2023-11-21T04:19:51;17.37;;;12.07;;
15799;SDS011;8002;51.196;7.010;2023-11-21T04:22:18;18.50;;;12.60;;
15799;SDS011;8002;51.196;7.010;2023-11-21T04:24:45;17.57;;;12.40;;
15799;SDS011;8002;51.196;7.010;2023-11-21T04:27:12;20.60;;;12.37;;
15799;SDS011;8002;51.196;7.010;2023-11-21T04:29:39;15.57;;;11.97;;
15799;SDS011;8002;51.196;7.010;2023-11-21T04:32:06;16.43;;;12.20;;
15799;SDS011;8002;51.196;7.010;2023-11-21T04:34:33;17.73;;;12.53;;
15799;SDS011;8002;51.196;7.010;2023-11-21T04:36:59;16.93;;;12.10;;
15799;SDS011;8002;51.196;7.010;2023-11-21T04:39:26;19.13;;;12.40;;
15799;SDS011;8002;51.196;7.010;2023-11-21T04:41:53;15.40;;;12.17;;
15799;SDS011;8002;51.196;7.010;2023-11-21T04:44:20;21.20;;;13.33;;
15799;SDS011;8002;51.196;7.010;2023-11-21T04:46:46;20.53;;;12.73;;
15799;SDS011;8002;51.196;7.010;2023-11-21T04:49:12;20.23;;;14.20;;
15799;SDS011;8002;51.196;7.010;2023-11-21T04:51:39;22.93;;;13.80;;
15799;SDS011;8002;51.196;7.010;2023-11-21T04:54:05;18.80;;;13.37;;
15799;SDS011;8002;51.196;7.010;2023-11-21T04:56:31;25.97;;;13.50;;
15799;SDS011;8002;51.196;7.010;2023-11-21T04:58:59;17.47;;;12.60;;
15799;SDS011;8002;51.196;7.010;2023-11-21T05:01:26;19.33;;;13.03;;
15799;SDS011;8002;51.196;7.010;2023-11-21T05:03:52;17.90;;;12.73;;
15799;SDS011;8002;51.196;7.010;2023-11-21T05:06:18;19.33;;;14.37;;
15799;SDS011;8002;51.196;7.010;2023-11-21T05:08:45;18.87;;;12.70;;
15799;SDS011;8002;51.196;7.010;2023-11-21T05:11:11;17.67;;;12.60;;
15799;SDS011;8002;51.196;7.010;2023-11-21T05:13:37;18.53;;;12.20;;
15799;SDS011;8002;51.196;7.010;2023-11-21T05:16:05;19.47;;;12.60;;
15799;SDS011;8002;51.196;7.010;2023-11-21T05:18:32;19.90;;;12.57;;
15799;SDS011;8002;51.196;7.010;2023-11-21T05:20:59;20.20;;;11.73;;
15799;SDS011;8002;51.196;7.010;2023-11-21T05:23:25;15.77;;;12.07;;
15799;SDS011;8002;51.196;7.010;2023-11-21T05:25:52;17.63;;;11.33;;
15799;SDS011;8002;51.196;7.010;2023-11-21T05:28:18;17.83;;;11.67;;
15799;SDS011;8002;51.196;7.010;2023-11-21T05:30:45;14.47;;;10.10;;
15799;SDS011;8002;51.196;7.010;2023-11-21T05:33:12;14.73;;;10.93;;
15799;SDS011;8002;51.196;7.010;2023-11-21T05:35:38;16.30;;;11.27;;
15799;SDS011;8002;51.196;7.010;2023-11-21T05:38:05;16.20;;;11.47;;
15799;SDS011;8002;51.196;7.010;2023-11-21T05:40:31;14.87;;;10.57;;
15799;SDS011;8002;51.196;7.010;2023-11-21T05:42:58;13.43;;;10.83;;
15799;SDS011;8002;51.196;7.010;2023-11-21T05:45:24;14.63;;;10.37;;
15799;SDS011;8002;51.196;7.010;2023-11-21T05:47:50;14.63;;;11.97;;
15799;SDS011;8002;51.196;7.010;2023-11-21T05:50:18;15.90;;;13.33;;
15799;SDS011;8002;51.196;7.010;2023-11-21T05:52:45;15.73;;;12.50;;
15799;SDS011;8002;51.196;7.010;2023-11-21T05:55:12;14.83;;;11.43;;
15799;SDS011;8002;51.196;7.010;2023-11-21T05:57:38;15.20;;;11.07;;
15799;SDS011;8002;51.196;7.010;2023-11-21T06:00:06;17.30;;;11.13;;
15799;SDS011;8002;51.196;7.010;2023-11-21T06:02:36;15.47;;;10.87;;
15799;SDS011;8002;51.196;7.010;2023-11-21T06:05:03;17.57;;;10.80;;
15799;SDS011;8002;51.196;7.010;2023-11-21T06:07:31;13.67;;;10.43;;
15799;SDS011;8002;51.196;7.010;2023-11-21T06:09:58;16.77;;;10.83;;
15799;SDS011;8002;51.196;7.010;2023-11-21T06:12:24;15.83;;;10.50;;
15799;SDS011;8002;51.196;7.010;2023-11-21T06:14:50;14.67;;;10.53;;
15799;SDS011;8002;51.196;7.010;2023-11-21T06:17:17;13.77;;;11.27;;
15799;SDS011;8002;51.196;7.010;2023-11-21T06:19:43;16.10;;;10.67;;
15799;SDS011;8002;51.196;7.010;2023-11-21T06:22:10;15.33;;;11.30;;
15799;SDS011;8002;51.196;7.010;2023-11-21T06:24:38;14.73;;;11.83;;
15799;SDS011;8002;51.196;7.010;2023-11-21T06:27:07;17.47;;;11.90;;
15799;SDS011;8002;51.196;7.010;2023-11-21T06:29:33;16.83;;;11.47;;
15799;SDS011;8002;51.196;7.010;2023-11-21T06:32:00;14.70;;;11.53;;
15799;SDS011;8002;51.196;7.010;2023-11-21T06:34:30;15.33;;;11.67;;
15799;SDS011;8002;51.196;7.010;2023-11-21T06:36:56;17.33;;;12.30;;
15799;SDS011;8002;51.196;7.010;2023-11-21T06:39:22;19.00;;;12.70;;
15799;SDS011;8002;51.196;7.010;2023-11-21T06:41:50;19.27;;;12.77;;
15799;SDS011;8002;51.196;7.010;2023-11-21T06:44:17;17.83;;;13.53;;
15799;SDS011;8002;51.196;7.010;2023-11-21T06:46:44;18.37;;;13.00;;
15799;SDS011;8002;51.196;7.010;2023-11-21T06:49:11;20.47;;;13.93;;
15799;SDS011;8002;51.196;7.010;2023-11-21T06:51:37;18.37;;;13.43;;
15799;SDS011;8002;51.196;7.010;2023-11-21T06:54:04;20.37;;;14.20;;
15799;SDS011;8002;51.196;7.010;2023-11-21T06:56:30;20.20;;;14.27;;
15799;SDS011;8002;51.196;7.010;2023-11-21T06:58:59;17.50;;;13.20;;
15799;SDS011;8002;51.196;7.010;2023-11-21T07:01:25;22.13;;;14.60;;
15799;SDS011;8002;51.196;7.010;2023-11-21T07:03:51;18.90;;;13.40;;
15799;SDS011;8002;51.196;7.010;2023-11-21T07:06:18;18.33;;;12.57;;
15799;SDS011;8002;51.196;7.010;2023-11-21T07:08:44;18.07;;;14.03;;
15799;SDS011;8002;51.196;7.010;2023-11-21T07:11:11;27.57;;;17.33;;
15799;SDS011;8002;51.196;7.010;2023-11-21T07:13:37;22.57;;;15.67;;
15799;SDS011;8002;51.196;7.010;2023-11-21T07:16:05;25.60;;;16.37;;
15799;SDS011;8002;51.196;7.010;2023-11-21T07:18:31;25.63;;;15.90;;
15799;SDS011;8002;51.196;7.010;2023-11-21T07:20:58;27.13;;;16.27;;
15799;SDS011;8002;51.196;7.010;2023-11-21T07:23:24;37.27;;;19.07;;
15799;SDS011;8002;51.196;7.010;2023-11-21T07:25:50;27.07;;;17.33;;
15799;SDS011;8002;51.196;7.010;2023-11-21T07:28:17;31.43;;;18.53;;
15799;SDS011;8002;51.196;7.010;2023-11-21T07:30:44;30.00;;;17.90;;
15799;SDS011;8002;51.196;7.010;2023-11-21T07:33:11;31.63;;;18.83;;
15799;SDS011;8002;51.196;7.010;2023-11-21T07:35:38;32.83;;;18.90;;
15799;SDS011;8002;51.196;7.010;2023-11-21T07:38:04;30.80;;;18.77;;
15799;SDS011;8002;51.196;7.010;2023-11-21T07:40:30;31.20;;;18.77;;
15799;SDS011;8002;51.196;7.010;2023-11-21T07:42:57;33.87;;;19.50;;
15799;SDS011;8002;51.196;7.010;2023-11-21T07:45:23;34.40;;;19.30;;
15799;SDS011;8002;51.196;7.010;2023-11-21T07:47:52;30.93;;;19.93;;
15799;SDS011;8002;51.196;7.010;2023-11-21T07:50:21;37.60;;;20.43;;
15799;SDS011;8002;51.196;7.010;2023-11-21T07:52:47;32.97;;;20.90;;
15799;SDS011;8002;51.196;7.010;2023-11-21T07:55:14;36.53;;;19.83;;
15799;SDS011;8002;51.196;7.010;2023-11-21T07:57:41;42.57;;;21.47;;
15799;SDS011;8002;51.196;7.010;2023-11-21T08:00:07;41.63;;;21.77;;
15799;SDS011;8002;51.196;7.010;2023-11-21T08:02:37;38.43;;;20.60;;
15799;SDS011;8002;51.196;7.010;2023-11-21T08:05:04;38.67;;;21.47;;
15799;SDS011;8002;51.196;7.010;2023-11-21T08:07:33;41.13;;;22.80;;
15799;SDS011;8002;51.196;7.010;2023-11-21T08:09:59;37.20;;;21.97;;
15799;SDS011;8002;51.196;7.010;2023-11-21T08:12:26;41.37;;;22.53;;
15799;SDS011;8002;51.196;7.010;2023-11-21T08:14:52;36.30;;;20.90;;
15799;SDS011;8002;51.196;7.010;2023-11-21T08:17:19;38.77;;;21.87;;
15799;SDS011;8002;51.196;7.010;2023-11-21T08:19:45;35.87;;;22.13;;
15799;SDS011;8002;51.196;7.010;2023-11-21T08:22:14;37.97;;;21.93;;
15799;SDS011;8002;51.196;7.010;2023-11-21T08:24:42;34.33;;;19.83;;
15799;SDS011;8002;51.196;7.010;2023-11-21T08:27:09;38.20;;;23.13;;
15799;SDS011;8002;51.196;7.010;2023-11-21T08:29:35;34.53;;;20.47;;
15799;SDS011;8002;51.196;7.010;2023-11-21T08:32:02;36.03;;;20.67;;
15799;SDS011;8002;51.196;7.010;2023-11-21T08:34:28;37.40;;;21.83;;
15799;SDS011;8002;51.196;7.010;2023-11-21T08:36:55;35.70;;;21.57;;
15799;SDS011;8002;51.196;7.010;2023-11-21T08:39:22;36.17;;;21.50;;
15799;SDS011;8002;51.196;7.010;2023-11-21T08:41:50;33.90;;;19.70;;
15799;SDS011;8002;51.196;7.010;2023-11-21T08:44:17;32.83;;;18.93;;
15799;SDS011;8002;51.196;7.010;2023-11-21T08:46:43;38.77;;;20.13;;
15799;SDS011;8002;51.196;7.010;2023-11-21T08:49:10;32.40;;;18.60;;
15799;SDS011;8002;51.196;7.010;2023-11-21T08:51:36;30.63;;;19.27;;
15799;SDS011;8002;51.196;7.010;2023-11-21T08:54:03;30.53;;;16.47;;
15799;SDS011;8002;51.196;7.010;2023-11-21T08:56:32;27.30;;;15.67;;
15799;SDS011;8002;51.196;7.010;2023-11-21T08:59:00;32.77;;;17.47;;
15799;SDS011;8002;51.196;7.010;2023-11-21T09:01:27;32.97;;;17.90;;
15799;SDS011;8002;51.196;7.010;2023-11-21T09:03:56;29.83;;;18.07;;
15799;SDS011;8002;51.196;7.010;2023-11-21T09:06:22;30.27;;;17.73;;
15799;SDS011;8002;51.196;7.010;2023-11-21T09:08:49;27.63;;;17.17;;
15799;SDS011;8002;51.196;7.010;2023-11-21T09:11:15;29.07;;;17.50;;
15799;SDS011;8002;51.196;7.010;2023-11-21T09:13:42;32.60;;;18.40;;
15799;SDS011;8002;51.196;7.010;2023-11-21T09:16:09;30.53;;;17.83;;
15799;SDS011;8002;51.196;7.010;2023-11-21T09:18:36;30.97;;;19.03;;
15799;SDS011;8002;51.196;7.010;2023-11-21T09:21:02;36.13;;;20.27;;
15799;SDS011;8002;51.196;7.010;2023-11-21T09:23:29;29.87;;;19.10;;
15799;SDS011;8002;51.196;7.010;2023-11-21T09:25:55;35.17;;;19.77;;
15799;SDS011;8002;51.196;7.010;2023-11-21T09:28:24;31.40;;;19.13;;
15799;SDS011;8002;51.196;7.010;2023-11-21T09:30:52;29.50;;;18.63;;
15799;SDS011;8002;51.196;7.010;2023-11-21T09:33:20;32.80;;;18.63;;
15799;SDS011;8002;51.196;7.010;2023-11-21T09:35:47;31.40;;;18.87;;
15799;SDS011;8002;51.196;7.010;2023-11-21T09:38:14;30.77;;;18.07;;
15799;SDS011;8002;51.196;7.010;2023-11-21T09:40:40;31.93;;;18.87;;
15799;SDS011;8002;51.196;7.010;2023-11-21T09:43:08;32.47;;;17.80;;
15799;SDS011;8002;51.196;7.010;2023-11-21T09:45:41;24.53;;;16.17;;
15799;SDS011;8002;51.196;7.010;2023-11-21T09:48:10;28.80;;;19.13;;
15799;SDS011;8002;51.196;7.010;2023-11-21T09:50:39;33.70;;;18.43;;
15799;SDS011;8002;51.196;7.010;2023-11-21T09:53:08;26.47;;;17.17;;
15799;SDS011;8002;51.196;7.010;2023-11-21T09:55:38;29.77;;;17.77;;
15799;SDS011;8002;51.196;7.010;2023-11-21T09:58:06;29.90;;;18.10;;
15799;SDS011;8002;51.196;7.010;2023-11-21T10:00:33;34.40;;;18.47;;
15799;SDS011;8002;51.196;7.010;2023-11-21T10:02:59;30.93;;;18.53;;
15799;SDS011;8002;51.196;7.010;2023-11-21T10:05:27;30.10;;;18.87;;
15799;SDS011;8002;51.196;7.010;2023-11-21T10:07:55;30.30;;;17.73;;
15799;SDS011;8002;51.196;7.010;2023-11-21T10:10:22;31.10;;;18.87;;
15799;SDS011;8002;51.196;7.010;2023-11-21T10:12:49;27.23;;;16.07;;
15799;SDS011;8002;51.196;7.010;2023-11-21T10:15:18;29.40;;;17.77;;
15799;SDS011;8002;51.196;7.010;2023-11-21T10:17:45;26.80;;;16.37;;
15799;SDS011;8002;51.196;7.010;2023-11-21T10:20:12;33.73;;;18.67;;
15799;SDS011;8002;51.196;7.010;2023-11-21T10:22:39;29.43;;;17.90;;
15799;SDS011;8002;51.196;7.010;2023-11-21T10:25:09;32.83;;;19.13;;
15799;SDS011;8002;51.196;7.010;2023-11-21T10:27:36;32.07;;;17.77;;
15799;SDS011;8002;51.196;7.010;2023-11-21T10:30:04;25.37;;;16.77;;
15799;SDS011;8002;51.196;7.010;2023-11-21T10:32:31;26.60;;;15.80;;
15799;SDS011;8002;51.196;7.010;2023-11-21T10:34:58;31.60;;;16.83;;
15799;SDS011;8002;51.196;7.010;2023-11-21T10:37:27;27.33;;;17.40;;
15799;SDS011;8002;51.196;7.010;2023-11-21T10:39:56;27.57;;;16.80;;
15799;SDS011;8002;51.196;7.010;2023-11-21T10:42:24;29.17;;;18.57;;
15799;SDS011;8002;51.196;7.010;2023-11-21T10:44:52;30.80;;;19.03;;
15799;SDS011;8002;51.196;7.010;2023-11-21T10:47:18;30.50;;;18.20;;
15799;SDS011;8002;51.196;7.010;2023-11-21T10:49:48;29.23;;;17.73;;
15799;SDS011;8002;51.196;7.010;2023-11-21T10:52:14;31.90;;;19.13;;
15799;SDS011;8002;51.196;7.010;2023-11-21T10:54:42;30.07;;;18.67;;
15799;SDS011;8002;51.196;7.010;2023-11-21T10:57:09;33.30;;;19.17;;
15799;SDS011;8002;51.196;7.010;2023-11-21T10:59:37;36.77;;;19.50;;
15799;SDS011;8002;51.196;7.010;2023-11-21T11:02:12;28.00;;;16.43;;
15799;SDS011;8002;51.196;7.010;2023-11-21T11:04:46;27.03;;;16.10;;
15799;SDS011;8002;51.196;7.010;2023-11-21T11:07:13;27.70;;;16.47;;
15799;SDS011;8002;51.196;7.010;2023-11-21T11:09:41;29.33;;;18.43;;
15799;SDS011;8002;51.196;7.010;2023-11-21T11:12:09;29.73;;;19.60;;
15799;SDS011;8002;51.196;7.010;2023-11-21T11:14:38;30.97;;;18.37;;
15799;SDS011;8002;51.196;7.010;2023-11-21T11:17:08;33.53;;;19.27;;
15799;SDS011;8002;51.196;7.010;2023-11-21T11:19:35;37.50;;;20.40;;
15799;SDS011;8002;51.196;7.010;2023-11-21T11:22:04;32.63;;;19.63;;
15799;SDS011;8002;51.196;7.010;2023-11-21T11:24:47;33.43;;;19.97;;
15799;SDS011;8002;51.196;7.010;2023-11-21T11:27:20;32.40;;;17.97;;
15799;SDS011;8002;51.196;7.010;2023-11-21T11:29:53;30.97;;;17.53;;
15799;SDS011;8002;51.196;7.010;2023-11-21T11:32:25;36.67;;;19.20;;
15799;SDS011;8002;51.196;7.010;2023-11-21T11:34:56;41.50;;;21.90;;
15799;SDS011;8002;51.196;7.010;2023-11-21T11:37:26;32.43;;;19.53;;
15799;SDS011;8002;51.196;7.010;2023-11-21T11:39:52;29.47;;;18.50;;
15799;SDS011;8002;51.196;7.010;2023-11-21T11:42:19;33.23;;;19.70;;
15799;SDS011;8002;51.196;7.010;2023-11-21T11:44:49;35.60;;;20.83;;
15799;SDS011;8002;51.196;7.010;2023-11-21T11:47:19;32.30;;;19.63;;
15799;SDS011;8002;51.196;7.010;2023-11-21T11:49:59;31.93;;;18.57;;
15799;SDS011;8002;51.196;7.010;2023-11-21T11:52:32;32.30;;;19.67;;
15799;SDS011;8002;51.196;7.010;2023-11-21T11:54:59;34.73;;;18.37;;
15799;SDS011;8002;51.196;7.010;2023-11-21T11:57:25;32.37;;;19.33;;
15799;SDS011;8002;51.196;7.010;2023-11-21T12:00:08;30.57;;;18.87;;
15799;SDS011;8002;51.196;7.010;2023-11-21T12:02:37;32.47;;;17.60;;
15799;SDS011;8002;51.196;7.010;2023-11-21T12:05:07;31.93;;;20.20;;
15799;SDS011;8002;51.196;7.010;2023-11-21T12:07:39;33.30;;;19.80;;
15799;SDS011;8002;51.196;7.010;2023-11-21T12:10:07;30.63;;;18.30;;
15799;SDS011;8002;51.196;7.010;2023-11-21T12:12:36;33.03;;;19.30;;
15799;SDS011;8002;51.196;7.010;2023-11-21T12:15:04;32.57;;;19.53;;
15799;SDS011;8002;51.196;7.010;2023-11-21T12:17:30;31.47;;;19.77;;
15799;SDS011;8002;51.196;7.010;2023-11-21T12:20:02;34.60;;;19.43;;
15799;SDS011;8002;51.196;7.010;2023-11-21T12:22:29;35.73;;;18.93;;
15799;SDS011;8002;51.196;7.010;2023-11-21T12:24:57;30.97;;;17.47;;
15799;SDS011;8002;51.196;7.010;2023-11-21T12:27:23;33.73;;;19.13;;
15799;SDS011;8002;51.196;7.010;2023-11-21T12:29:49;32.27;;;18.73;;
15799;SDS011;8002;51.196;7.010;2023-11-21T12:32:16;34.43;;;19.53;;
15799;SDS011;8002;51.196;7.010;2023-11-21T12:34:44;36.13;;;20.43;;
15799;SDS011;8002;51.196;7.010;2023-11-21T12:37:13;43.97;;;21.63;;
15799;SDS011;8002;51.196;7.010;2023-11-21T12:39:39;36.33;;;21.03;;
15799;SDS011;8002;51.196;7.010;2023-11-21T12:42:06;32.40;;;18.17;;
15799;SDS011;8002;51.196;7.010;2023-11-21T12:44:32;32.47;;;17.43;;
15799;SDS011;8002;51.196;7.010;2023-11-21T12:46:58;29.70;;;18.03;;
15799;SDS011;8002;51.196;7.010;2023-11-21T12:49:26;31.13;;;18.13;;
15799;SDS011;8002;51.196;7.010;2023-11-21T12:51:53;28.67;;;16.70;;
15799;SDS011;8002;51.196;7.010;2023-11-21T12:54:21;31.67;;;17.30;;
15799;SDS011;8002;51.196;7.010;2023-11-21T12:56:47;29.30;;;16.03;;
15799;SDS011;8002;51.196;7.010;2023-11-21T12:59:15;26.93;;;16.30;;
15799;SDS011;8002;51.196;7.010;2023-11-21T13:01:43;29.33;;;17.27;;
15799;SDS011;8002;51.196;7.010;2023-11-21T13:04:10;26.67;;;17.37;;
15799;SDS011;8002;51.196;7.010;2023-11-21T13:06:36;31.60;;;17.83;;
15799;SDS011;8002;51.196;7.010;2023-11-21T13:09:06;37.17;;;17.53;;
15799;SDS011;8002;51.196;7.010;2023-11-21T13:11:36;27.93;;;17.93;;
15799;SDS011;8002;51.196;7.010;2023-11-21T13:14:05;29.27;;;18.93;;
15799;SDS011;8002;51.196;7.010;2023-11-21T13:16:32;32.97;;;18.73;;
15799;SDS011;8002;51.196;7.010;2023-11-21T13:18:58;31.10;;;18.37;;
15799;SDS011;8002;51.196;7.010;2023-11-21T13:21:24;30.73;;;18.03;;
15799;SDS011;8002;51.196;7.010;2023-11-21T13:23:51;25.80;;;16.30;;
15799;SDS011;8002;51.196;7.010;2023-11-21T13:26:18;31.07;;;16.97;;
15799;SDS011;8002;51.196;7.010;2023-11-21T13:28:47;31.20;;;18.47;;
15799;SDS011;8002;51.196;7.010;2023-11-21T13:31:13;29.10;;;17.17;;
15799;SDS011;8002;51.196;7.010;2023-11-21T13:33:52;32.57;;;18.07;;
15799;SDS011;8002;51.196;7.010;2023-11-21T13:36:21;29.60;;;17.93;;
15799;SDS011;8002;51.196;7.010;2023-11-21T13:38:48;32.53;;;18.97;;
15799;SDS011;8002;51.196;7.010;2023-11-21T13:41:14;36.00;;;21.20;;
15799;SDS011;8002;51.196;7.010;2023-11-21T13:43:42;40.37;;;20.70;;
15799;SDS011;8002;51.196;7.010;2023-11-21T13:46:14;36.40;;;20.20;;
15799;SDS011;8002;51.196;7.010;2023-11-21T13:48:46;40.17;;;21.43;;
15799;SDS011;8002;51.196;7.010;2023-11-21T13:51:15;33.37;;;20.90;;
15799;SDS011;8002;51.196;7.010;2023-11-21T13:53:43;35.00;;;19.60;;
15799;SDS011;8002;51.196;7.010;2023-11-21T13:56:10;36.73;;;20.77;;
15799;SDS011;8002;51.196;7.010;2023-11-21T13:58:38;41.60;;;19.73;;
15799;SDS011;8002;51.196;7.010;2023-11-21T14:01:11;36.40;;;20.33;;
15799;SDS011;8002;51.196;7.010;2023-11-21T14:03:58;40.60;;;20.40;;
15799;SDS011;8002;51.196;7.010;2023-11-21T14:06:33;33.27;;;19.47;;
15799;SDS011;8002;51.196;7.010;2023-11-21T14:09:07;33.63;;;20.83;;
15799;SDS011;8002;51.196;7.010;2023-11-21T14:11:33;33.63;;;19.57;;
15799;SDS011;8002;51.196;7.010;2023-11-21T14:14:03;34.77;;;20.47;;
15799;SDS011;8002;51.196;7.010;2023-11-21T14:16:30;32.87;;;19.63;;
15799;SDS011;8002;51.196;7.010;2023-11-21T14:18:57;32.43;;;19.87;;
15799;SDS011;8002;51.196;7.010;2023-11-21T14:21:30;30.17;;;19.20;;
15799;SDS011;8002;51.196;7.010;2023-11-21T14:23:57;26.27;;;18.13;;
15799;SDS011;8002;51.196;7.010;2023-11-21T14:26:23;27.97;;;18.50;;
15799;SDS011;8002;51.196;7.010;2023-11-21T14:28:49;19.80;;;14.47;;
15799;SDS011;8002;51.196;7.010;2023-11-21T14:31:16;19.37;;;13.30;;
15799;SDS011;8002;51.196;7.010;2023-11-21T14:33:43;16.87;;;12.33;;
15799;SDS011;8002;51.196;7.010;2023-11-21T14:36:10;18.03;;;12.70;;